sensor_id;sensor_type;location;lat;lon;timestamp;pressure;altitude;pressure_sealevel;temperature;humidity
71970;BME280;59838;52.152;5.436;2023-10-09T00:02:11;102075.03;;;12.63;100.00
71970;BME280;59838;52.152;5.436;2023-10-09T00:04:38;102077.00;;;12.61;100.00
71970;BME280;59838;52.152;5.436;2023-10-09T00:07:09;102073.41;;;12.62;100.00
71970;BME280;59838;52.152;5.436;2023-10-09T00:09:37;102068.03;;;12.64;100.00
71970;BME280;59838;52.152;5.436;2023-10-09T00:12:17;102063.63;;;12.64;100.00
71970;BME280;59838;52.152;5.436;2023-10-09T00:14:49;102065.28;;;12.65;100.00
71970;BME280;59838;52.152;5.436;2023-10-09T00:17:17;102064.44;;;12.65;100.00
71970;BME280;59838;52.152;5.436;2023-10-09T00:19:48;102056.63;;;12.65;100.00
71970;BME280;59838;52.152;5.436;2023-10-09T00:22:18;102062.81;;;12.64;100.00
71970;BME280;59838;52.152;5.436;2023-10-09T00:24:47;102054.00;;;12.65;100.00
71970;BME280;59838;52.152;5.436;2023-10-09T00:27:17;102059.22;;;12.65;100.00
71970;BME280;59838;52.152;5.436;2023-10-09T00:29:47;102069.16;;;12.69;100.00
71970;BME280;59838;52.152;5.436;2023-10-09T00:32:15;102067.84;;;12.73;100.00
71970;BME280;59838;52.152;5.436;2023-10-09T00:34:53;102063.44;;;12.74;100.00
71970;BME280;59838;52.152;5.436;2023-10-09T00:37:24;102071.91;;;12.76;100.00
71970;BME280;59838;52.152;5.436;2023-10-09T00:39:53;102052.53;;;12.78;100.00
71970;BME280;59838;52.152;5.436;2023-10-09T00:42:24;102071.09;;;12.84;100.00
71970;BME280;59838;52.152;5.436;2023-10-09T00:44:56;102060.50;;;12.85;100.00
71970;BME280;59838;52.152;5.436;2023-10-09T00:47:23;102068.47;;;12.92;100.00
71970;BME280;59838;52.152;5.436;2023-10-09T00:49:57;102065.50;;;12.95;100.00
71970;BME280;59838;52.152;5.436;2023-10-09T00:52:45;102058.00;;;13.00;100.00
71970;BME280;59838;52.152;5.436;2023-10-09T00:55:19;102055.06;;;13.03;100.00
71970;BME280;59838;52.152;5.436;2023-10-09T00:58:08;102045.09;;;13.07;100.00
71970;BME280;59838;52.152;5.436;2023-10-09T01:00:42;102043.13;;;13.09;100.00
71970;BME280;59838;52.152;5.436;2023-10-09T01:03:16;102040.16;;;13.12;100.00
71970;BME280;59838;52.152;5.436;2023-10-09T01:05:45;102041.81;;;13.13;100.00
71970;BME280;59838;52.152;5.436;2023-10-09T01:08:29;102032.00;;;13.15;100.00
71970;BME280;59838;52.152;5.436;2023-10-09T01:10:58;102021.22;;;13.18;100.00
71970;BME280;59838;52.152;5.436;2023-10-09T01:13:36;102035.75;;;13.21;100.00
71970;BME280;59838;52.152;5.436;2023-10-09T01:16:20;102037.19;;;13.23;100.00
71970;BME280;59838;52.152;5.436;2023-10-09T01:18:51;102029.00;;;13.26;100.00
71970;BME280;59838;52.152;5.436;2023-10-09T01:21:19;102033.25;;;13.27;100.00
71970;BME280;59838;52.152;5.436;2023-10-09T01:23:53;102026.91;;;13.30;100.00
71970;BME280;59838;52.152;5.436;2023-10-09T01:26:33;102018.06;;;13.31;100.00
71970;BME280;59838;52.152;5.436;2023-10-09T01:29:06;102025.59;;;13.34;100.00
71970;BME280;59838;52.152;5.436;2023-10-09T01:31:41;102019.41;;;13.35;100.00
71970;BME280;59838;52.152;5.436;2023-10-09T01:34:19;102029.50;;;13.38;100.00
71970;BME280;59838;52.152;5.436;2023-10-09T01:36:53;102021.50;;;13.40;100.00
71970;BME280;59838;52.152;5.436;2023-10-09T01:39:23;102017.88;;;13.41;100.00
71970;BME280;59838;52.152;5.436;2023-10-09T01:41:50;102021.97;;;13.43;100.00
71970;BME280;59838;52.152;5.436;2023-10-09T01:44:26;102004.50;;;13.44;100.00
71970;BME280;59838;52.152;5.436;2023-10-09T01:46:53;102005.78;;;13.48;100.00
71970;BME280;59838;52.152;5.436;2023-10-09T01:49:23;102005.78;;;13.48;100.00
71970;BME280;59838;52.152;5.436;2023-10-09T01:51:56;102009.81;;;13.50;100.00
71970;BME280;59838;52.152;5.436;2023-10-09T01:54:36;102007.03;;;13.52;100.00
71970;BME280;59838;52.152;5.436;2023-10-09T01:57:04;102012.25;;;13.52;100.00
71970;BME280;59838;52.152;5.436;2023-10-09T01:59:40;101996.78;;;13.50;100.00
71970;BME280;59838;52.152;5.436;2023-10-09T02:02:16;101991.56;;;13.50;100.00
71970;BME280;59838;52.152;5.436;2023-10-09T02:04:55;101989.78;;;13.51;100.00
71970;BME280;59838;52.152;5.436;2023-10-09T02:07:36;101990.75;;;13.50;100.00
71970;BME280;59838;52.152;5.436;2023-10-09T02:10:19;101992.56;;;13.49;100.00
71970;BME280;59838;52.152;5.436;2023-10-09T02:12:53;101983.88;;;13.49;100.00
71970;BME280;59838;52.152;5.436;2023-10-09T02:15:28;101977.06;;;13.48;100.00
71970;BME280;59838;52.152;5.436;2023-10-09T02:18:12;101974.44;;;13.48;100.00
71970;BME280;59838;52.152;5.436;2023-10-09T02:20:51;101980.47;;;13.48;100.00
71970;BME280;59838;52.152;5.436;2023-10-09T02:23:32;101975.59;;;13.45;100.00
71970;BME280;59838;52.152;5.436;2023-10-09T02:26:08;101969.56;;;13.45;100.00
71970;BME280;59838;52.152;5.436;2023-10-09T02:28:37;101969.75;;;13.43;100.00
71970;BME280;59838;52.152;5.436;2023-10-09T02:31:11;101963.53;;;13.44;100.00
71970;BME280;59838;52.152;5.436;2023-10-09T02:33:38;101954.88;;;13.44;100.00
71970;BME280;59838;52.152;5.436;2023-10-09T02:36:08;101965.97;;;13.46;100.00
71970;BME280;59838;52.152;5.436;2023-10-09T02:38:36;101973.00;;;13.45;100.00
71970;BME280;59838;52.152;5.436;2023-10-09T02:41:04;101961.56;;;13.46;100.00
71970;BME280;59838;52.152;5.436;2023-10-09T02:43:32;101960.56;;;13.47;100.00
71970;BME280;59838;52.152;5.436;2023-10-09T02:46:14;101964.66;;;13.50;100.00
71970;BME280;59838;52.152;5.436;2023-10-09T02:48:45;101955.84;;;13.51;100.00
71970;BME280;59838;52.152;5.436;2023-10-09T02:51:14;101947.84;;;13.52;100.00
71970;BME280;59838;52.152;5.436;2023-10-09T02:54:02;101950.91;;;13.56;100.00
71970;BME280;59838;52.152;5.436;2023-10-09T02:56:46;101937.00;;;13.56;100.00
71970;BME280;59838;52.152;5.436;2023-10-09T02:59:23;101942.06;;;13.57;100.00
71970;BME280;59838;52.152;5.436;2023-10-09T03:01:50;101938.31;;;13.60;100.00
71970;BME280;59838;52.152;5.436;2023-10-09T03:04:20;101929.50;;;13.61;100.00
71970;BME280;59838;52.152;5.436;2023-10-09T03:06:50;101937.16;;;13.62;100.00
71970;BME280;59838;52.152;5.436;2023-10-09T03:09:17;101926.53;;;13.64;100.00
71970;BME280;59838;52.152;5.436;2023-10-09T03:11:48;101932.38;;;13.66;100.00
71970;BME280;59838;52.152;5.436;2023-10-09T03:14:23;101925.34;;;13.66;100.00
71970;BME280;59838;52.152;5.436;2023-10-09T03:16:53;101933.00;;;13.68;100.00
71970;BME280;59838;52.152;5.436;2023-10-09T03:19:19;101935.44;;;13.69;100.00
71970;BME280;59838;52.152;5.436;2023-10-09T03:21:46;101936.06;;;13.71;100.00
71970;BME280;59838;52.152;5.436;2023-10-09T03:24:12;101930.84;;;13.71;100.00
71970;BME280;59838;52.152;5.436;2023-10-09T03:26:39;101922.22;;;13.71;100.00
71970;BME280;59838;52.152;5.436;2023-10-09T03:29:06;101921.06;;;13.74;100.00
71970;BME280;59838;52.152;5.436;2023-10-09T03:31:33;101933.13;;;13.75;100.00
71970;BME280;59838;52.152;5.436;2023-10-09T03:33:59;101924.31;;;13.76;100.00
71970;BME280;59838;52.152;5.436;2023-10-09T03:36:26;101909.44;;;13.76;100.00
71970;BME280;59838;52.152;5.436;2023-10-09T03:38:53;101910.22;;;13.77;100.00
71970;BME280;59838;52.152;5.436;2023-10-09T03:41:25;101915.28;;;13.78;100.00
71970;BME280;59838;52.152;5.436;2023-10-09T03:43:55;101924.75;;;13.79;100.00
71970;BME280;59838;52.152;5.436;2023-10-09T03:46:22;101941.41;;;13.78;100.00
71970;BME280;59838;52.152;5.436;2023-10-09T03:48:52;101963.13;;;13.79;100.00
71970;BME280;59838;52.152;5.436;2023-10-09T03:51:22;101960.50;;;13.79;100.00
71970;BME280;59838;52.152;5.436;2023-10-09T03:53:50;101968.97;;;13.81;100.00
71970;BME280;59838;52.152;5.436;2023-10-09T03:56:19;101963.41;;;13.84;100.00
71970;BME280;59838;52.152;5.436;2023-10-09T03:58:48;101964.03;;;13.86;100.00
71970;BME280;59838;52.152;5.436;2023-10-09T04:01:18;101948.38;;;13.86;100.00
71970;BME280;59838;52.152;5.436;2023-10-09T04:03:51;101947.22;;;13.88;100.00
71970;BME280;59838;52.152;5.436;2023-10-09T04:06:28;101955.50;;;13.92;100.00
71970;BME280;59838;52.152;5.436;2023-10-09T04:08:57;101971.00;;;13.94;100.00
71970;BME280;59838;52.152;5.436;2023-10-09T04:11:25;101948.28;;;13.94;100.00
71970;BME280;59838;52.152;5.436;2023-10-09T04:13:52;101949.75;;;13.97;100.00
71970;BME280;59838;52.152;5.436;2023-10-09T04:16:26;101953.16;;;13.97;100.00
71970;BME280;59838;52.152;5.436;2023-10-09T04:19:00;101953.16;;;13.97;100.00
71970;BME280;59838;52.152;5.436;2023-10-09T04:21:37;101953.78;;;13.99;100.00
71970;BME280;59838;52.152;5.436;2023-10-09T04:24:05;101952.97;;;13.99;100.00
71970;BME280;59838;52.152;5.436;2023-10-09T04:26:43;101949.41;;;14.00;100.00
71970;BME280;59838;52.152;5.436;2023-10-09T04:29:14;101950.47;;;14.05;100.00
71970;BME280;59838;52.152;5.436;2023-10-09T04:31:54;101946.06;;;14.06;100.00
71970;BME280;59838;52.152;5.436;2023-10-09T04:34:23;101925.16;;;14.06;100.00
71970;BME280;59838;52.152;5.436;2023-10-09T04:36:56;101920.41;;;14.10;100.00
71970;BME280;59838;52.152;5.436;2023-10-09T04:39:48;101932.28;;;14.12;100.00
71970;BME280;59838;52.152;5.436;2023-10-09T04:42:16;101932.44;;;14.11;100.00
71970;BME280;59838;52.152;5.436;2023-10-09T04:44:52;101925.88;;;14.15;100.00
71970;BME280;59838;52.152;5.436;2023-10-09T04:47:44;101943.47;;;14.21;100.00
71970;BME280;59838;52.152;5.436;2023-10-09T04:50:33;101931.47;;;14.26;100.00
71970;BME280;59838;52.152;5.436;2023-10-09T04:53:02;101918.03;;;14.30;100.00
71970;BME280;59838;52.152;5.436;2023-10-09T04:55:44;101916.53;;;14.35;100.00
71970;BME280;59838;52.152;5.436;2023-10-09T04:58:22;101923.63;;;14.41;100.00
71970;BME280;59838;52.152;5.436;2023-10-09T05:00:58;101911.28;;;14.50;100.00
71970;BME280;59838;52.152;5.436;2023-10-09T05:03:25;101924.25;;;14.58;100.00
71970;BME280;59838;52.152;5.436;2023-10-09T05:05:55;101926.00;;;14.66;100.00
71970;BME280;59838;52.152;5.436;2023-10-09T05:08:26;101926.44;;;14.70;100.00
71970;BME280;59838;52.152;5.436;2023-10-09T05:10:54;101927.06;;;14.72;100.00
71970;BME280;59838;52.152;5.436;2023-10-09T05:13:43;101931.75;;;14.76;100.00
71970;BME280;59838;52.152;5.436;2023-10-09T05:16:16;101938.25;;;14.80;100.00
71970;BME280;59838;52.152;5.436;2023-10-09T05:18:54;101954.38;;;14.84;100.00
71970;BME280;59838;52.152;5.436;2023-10-09T05:21:29;101949.59;;;14.88;100.00
71970;BME280;59838;52.152;5.436;2023-10-09T05:24:00;101947.66;;;14.96;100.00
71970;BME280;59838;52.152;5.436;2023-10-09T05:26:44;101959.47;;;15.07;100.00
71970;BME280;59838;52.152;5.436;2023-10-09T05:29:20;101959.72;;;15.12;100.00
71970;BME280;59838;52.152;5.436;2023-10-09T05:32:03;101972.06;;;15.18;100.00
71970;BME280;59838;52.152;5.436;2023-10-09T05:34:44;101971.34;;;15.25;100.00
71970;BME280;59838;52.152;5.436;2023-10-09T05:37:27;101966.97;;;15.32;100.00
71970;BME280;59838;52.152;5.436;2023-10-09T05:40:04;101977.06;;;15.35;100.00
71970;BME280;59838;52.152;5.436;2023-10-09T05:42:57;101976.28;;;15.34;100.00
71970;BME280;59838;52.152;5.436;2023-10-09T05:45:26;101979.50;;;15.36;100.00
71970;BME280;59838;52.152;5.436;2023-10-09T05:48:16;101976.69;;;15.38;100.00
71970;BME280;59838;52.152;5.436;2023-10-09T05:50:43;101978.75;;;15.43;100.00
71970;BME280;59838;52.152;5.436;2023-10-09T05:53:28;101988.88;;;15.46;100.00
71970;BME280;59838;52.152;5.436;2023-10-09T05:56:12;101984.25;;;15.48;100.00
71970;BME280;59838;52.152;5.436;2023-10-09T05:58:57;101988.50;;;15.49;100.00
71970;BME280;59838;52.152;5.436;2023-10-09T06:01:32;101976.22;;;15.49;100.00
71970;BME280;59838;52.152;5.436;2023-10-09T06:04:18;101971.78;;;15.50;100.00
71970;BME280;59838;52.152;5.436;2023-10-09T06:06:46;101940.16;;;15.51;100.00
71970;BME280;59838;52.152;5.436;2023-10-09T06:09:22;101938.19;;;15.53;100.00
71970;BME280;59838;52.152;5.436;2023-10-09T06:11:49;101930.94;;;15.56;100.00
71970;BME280;59838;52.152;5.436;2023-10-09T06:14:17;101947.63;;;15.54;100.00
71970;BME280;59838;52.152;5.436;2023-10-09T06:17:12;101944.84;;;15.56;100.00
71970;BME280;59838;52.152;5.436;2023-10-09T06:19:53;101962.97;;;15.58;100.00
71970;BME280;59838;52.152;5.436;2023-10-09T06:22:25;101963.59;;;15.60;100.00
71970;BME280;59838;52.152;5.436;2023-10-09T06:25:10;101945.25;;;15.60;100.00
71970;BME280;59838;52.152;5.436;2023-10-09T06:27:38;101948.53;;;15.62;100.00
71970;BME280;59838;52.152;5.436;2023-10-09T06:30:23;101924.56;;;15.65;100.00
71970;BME280;59838;52.152;5.436;2023-10-09T06:32:53;101934.88;;;15.66;100.00
71970;BME280;59838;52.152;5.436;2023-10-09T06:35:33;101941.53;;;15.69;100.00
71970;BME280;59838;52.152;5.436;2023-10-09T06:38:02;101945.78;;;15.70;100.00
71970;BME280;59838;52.152;5.436;2023-10-09T06:40:29;101954.44;;;15.70;100.00
71970;BME280;59838;52.152;5.436;2023-10-09T06:43:14;101967.34;;;15.72;100.00
71970;BME280;59838;52.152;5.436;2023-10-09T06:45:57;101985.69;;;15.72;100.00
71970;BME280;59838;52.152;5.436;2023-10-09T06:48:25;101986.28;;;15.74;100.00
71970;BME280;59838;52.152;5.436;2023-10-09T06:51:10;101986.28;;;15.74;100.00
71970;BME280;59838;52.152;5.436;2023-10-09T06:53:56;102000.06;;;15.76;100.00
71970;BME280;59838;52.152;5.436;2023-10-09T06:56:27;101999.06;;;15.77;100.00
71970;BME280;59838;52.152;5.436;2023-10-09T06:59:01;101990.19;;;15.78;100.00
71970;BME280;59838;52.152;5.436;2023-10-09T07:01:42;101981.97;;;15.81;100.00
71970;BME280;59838;52.152;5.436;2023-10-09T07:04:10;101992.50;;;15.88;100.00
71970;BME280;59838;52.152;5.436;2023-10-09T07:07:07;101988.50;;;15.92;100.00
71970;BME280;59838;52.152;5.436;2023-10-09T07:09:39;101980.44;;;15.94;100.00
71970;BME280;59838;52.152;5.436;2023-10-09T07:12:09;101974.63;;;15.98;100.00
71970;BME280;59838;52.152;5.436;2023-10-09T07:14:40;101973.44;;;16.01;100.00
71970;BME280;59838;52.152;5.436;2023-10-09T07:17:08;101983.75;;;16.02;100.00
71970;BME280;59838;52.152;5.436;2023-10-09T07:20:12;101989.59;;;16.04;100.00
71970;BME280;59838;52.152;5.436;2023-10-09T07:22:57;101977.28;;;16.05;100.00
71970;BME280;59838;52.152;5.436;2023-10-09T07:25:41;101969.06;;;16.08;100.00
71970;BME280;59838;52.152;5.436;2023-10-09T07:28:11;101960.81;;;16.11;100.00
71970;BME280;59838;52.152;5.436;2023-10-09T07:31:03;101949.34;;;16.12;100.00
71970;BME280;59838;52.152;5.436;2023-10-09T07:33:30;101942.88;;;16.15;100.00
71970;BME280;59838;52.152;5.436;2023-10-09T07:36:15;101920.72;;;16.17;100.00
71970;BME280;59838;52.152;5.436;2023-10-09T07:38:42;101917.53;;;16.22;100.00
71970;BME280;59838;52.152;5.436;2023-10-09T07:41:10;101920.56;;;16.25;100.00
71970;BME280;59838;52.152;5.436;2023-10-09T07:43:38;101926.88;;;16.31;100.00
71970;BME280;59838;52.152;5.436;2023-10-09T07:46:06;101951.28;;;16.38;100.00
71970;BME280;59838;52.152;5.436;2023-10-09T07:48:53;101952.31;;;16.44;100.00
71970;BME280;59838;52.152;5.436;2023-10-09T07:51:22;101971.72;;;16.50;100.00
71970;BME280;59838;52.152;5.436;2023-10-09T07:53:59;101972.75;;;16.55;100.00
71970;BME280;59838;52.152;5.436;2023-10-09T07:56:40;101962.72;;;16.59;100.00
71970;BME280;59838;52.152;5.436;2023-10-09T07:59:13;101973.22;;;16.66;100.00
71970;BME280;59838;52.152;5.436;2023-10-09T08:01:40;101967.19;;;16.72;100.00
71970;BME280;59838;52.152;5.436;2023-10-09T08:04:22;101966.84;;;16.81;100.00
71970;BME280;59838;52.152;5.436;2023-10-09T08:07:07;101988.28;;;16.92;100.00
71970;BME280;59838;52.152;5.436;2023-10-09T08:09:55;101975.22;;;17.05;100.00
71970;BME280;59838;52.152;5.436;2023-10-09T08:12:47;101990.38;;;17.16;100.00
71970;BME280;59838;52.152;5.436;2023-10-09T08:15:17;101994.66;;;17.24;100.00
71970;BME280;59838;52.152;5.436;2023-10-09T08:17:52;101983.56;;;17.29;100.00
71970;BME280;59838;52.152;5.436;2023-10-09T08:20:40;102002.34;;;17.32;100.00
71970;BME280;59838;52.152;5.436;2023-10-09T08:23:24;101990.44;;;17.36;100.00
71970;BME280;59838;52.152;5.436;2023-10-09T08:26:15;101993.28;;;17.42;100.00
71970;BME280;59838;52.152;5.436;2023-10-09T08:28:55;101989.66;;;17.49;100.00
71970;BME280;59838;52.152;5.436;2023-10-09T08:31:43;101991.28;;;17.57;100.00
71970;BME280;59838;52.152;5.436;2023-10-09T08:34:13;101995.72;;;17.63;100.00
71970;BME280;59838;52.152;5.436;2023-10-09T08:37:10;102017.97;;;17.67;100.00
71970;BME280;59838;52.152;5.436;2023-10-09T08:39:39;102036.78;;;17.71;100.00
71970;BME280;59838;52.152;5.436;2023-10-09T08:42:06;102042.25;;;17.76;100.00
71970;BME280;59838;52.152;5.436;2023-10-09T08:44:34;102040.84;;;17.87;100.00
71970;BME280;59838;52.152;5.436;2023-10-09T08:47:01;102041.88;;;17.93;100.00
71970;BME280;59838;52.152;5.436;2023-10-09T08:49:30;102027.91;;;17.99;100.00
71970;BME280;59838;52.152;5.436;2023-10-09T08:51:59;102041.66;;;18.07;100.00
71970;BME280;59838;52.152;5.436;2023-10-09T08:54:29;102045.53;;;18.12;100.00
71970;BME280;59838;52.152;5.436;2023-10-09T08:56:59;102041.47;;;18.16;100.00
71970;BME280;59838;52.152;5.436;2023-10-09T08:59:27;102046.31;;;18.19;100.00
71970;BME280;59838;52.152;5.436;2023-10-09T09:01:54;102046.94;;;18.21;100.00
71970;BME280;59838;52.152;5.436;2023-10-09T09:04:37;102042.88;;;18.25;100.00
71970;BME280;59838;52.152;5.436;2023-10-09T09:07:27;102051.59;;;18.32;100.00
71970;BME280;59838;52.152;5.436;2023-10-09T09:09:58;102045.72;;;18.37;100.00
71970;BME280;59838;52.152;5.436;2023-10-09T09:12:30;102049.72;;;18.46;100.00
71970;BME280;59838;52.152;5.436;2023-10-09T09:15:04;102047.06;;;18.53;100.00
71970;BME280;59838;52.152;5.436;2023-10-09T09:17:39;102043.00;;;18.63;100.00
71970;BME280;59838;52.152;5.436;2023-10-09T09:20:26;102065.84;;;18.76;100.00
71970;BME280;59838;52.152;5.436;2023-10-09T09:23:03;102073.72;;;18.83;100.00
71970;BME280;59838;52.152;5.436;2023-10-09T09:25:43;102063.22;;;18.90;100.00
71970;BME280;59838;52.152;5.436;2023-10-09T09:28:15;102078.56;;;18.99;100.00
71970;BME280;59838;52.152;5.436;2023-10-09T09:30:48;102062.94;;;19.05;100.00
71970;BME280;59838;52.152;5.436;2023-10-09T09:33:21;102061.72;;;19.07;100.00
71970;BME280;59838;52.152;5.436;2023-10-09T09:36:07;102065.97;;;19.15;100.00
71970;BME280;59838;52.152;5.436;2023-10-09T09:38:34;102056.59;;;19.19;100.00
71970;BME280;59838;52.152;5.436;2023-10-09T09:41:18;102071.41;;;19.20;100.00
71970;BME280;59838;52.152;5.436;2023-10-09T09:43:53;102069.94;;;19.24;100.00
71970;BME280;59838;52.152;5.436;2023-10-09T09:46:24;102064.06;;;19.29;100.00
71970;BME280;59838;52.152;5.436;2023-10-09T09:49:04;102062.63;;;19.33;100.00
71970;BME280;59838;52.152;5.436;2023-10-09T09:51:43;102064.00;;;19.35;100.00
71970;BME280;59838;52.152;5.436;2023-10-09T09:54:15;102056.91;;;19.43;100.00
71970;BME280;59838;52.152;5.436;2023-10-09T09:56:45;102060.06;;;19.51;100.00
71970;BME280;59838;52.152;5.436;2023-10-09T09:59:18;102066.94;;;19.59;100.00
71970;BME280;59838;52.152;5.436;2023-10-09T10:01:50;102066.09;;;19.65;100.00
71970;BME280;59838;52.152;5.436;2023-10-09T10:04:29;102068.72;;;19.65;100.00
71970;BME280;59838;52.152;5.436;2023-10-09T10:07:02;102066.25;;;19.70;100.00
71970;BME280;59838;52.152;5.436;2023-10-09T10:09:37;102057.13;;;19.73;100.00
71970;BME280;59838;52.152;5.436;2023-10-09T10:12:08;102058.31;;;19.77;100.00
71970;BME280;59838;52.152;5.436;2023-10-09T10:14:57;102064.19;;;19.79;100.00
71970;BME280;59838;52.152;5.436;2023-10-09T10:20:26;102059.34;;;19.76;100.00
71970;BME280;59838;52.152;5.436;2023-10-09T10:23:14;102059.09;;;19.84;100.00
71970;BME280;59838;52.152;5.436;2023-10-09T10:25:43;102068.16;;;19.88;100.00
71970;BME280;59838;52.152;5.436;2023-10-09T10:28:23;102065.31;;;19.90;100.00
71970;BME280;59838;52.152;5.436;2023-10-09T10:31:06;102080.66;;;20.00;100.00
71970;BME280;59838;52.152;5.436;2023-10-09T10:36:20;102088.09;;;20.09;100.00
71970;BME280;59838;52.152;5.436;2023-10-09T10:39:03;102084.75;;;20.21;100.00
71970;BME280;59838;52.152;5.436;2023-10-09T10:41:57;102085.06;;;20.31;100.00
71970;BME280;59838;52.152;5.436;2023-10-09T10:44:28;102076.28;;;20.37;100.00
71970;BME280;59838;52.152;5.436;2023-10-09T10:47:07;102080.91;;;20.42;100.00
71970;BME280;59838;52.152;5.436;2023-10-09T10:49:52;102079.31;;;20.41;100.00
71970;BME280;59838;52.152;5.436;2023-10-09T10:52:25;102071.63;;;20.39;100.00
71970;BME280;59838;52.152;5.436;2023-10-09T10:55:12;102080.69;;;20.43;100.00
71970;BME280;59838;52.152;5.436;2023-10-09T10:58:15;102078.41;;;20.47;100.00
71970;BME280;59838;52.152;5.436;2023-10-09T11:00:54;102070.59;;;20.59;100.00
71970;BME280;59838;52.152;5.436;2023-10-09T11:03:25;102086.41;;;20.66;100.00
71970;BME280;59838;52.152;5.436;2023-10-09T11:06:25;102082.28;;;20.70;100.00
71970;BME280;59838;52.152;5.436;2023-10-09T11:09:06;102075.19;;;20.70;100.00
71970;BME280;59838;52.152;5.436;2023-10-09T11:12:15;102065.41;;;20.71;100.00
71970;BME280;59838;52.152;5.436;2023-10-09T11:14:49;102066.97;;;20.78;100.00
71970;BME280;59838;52.152;5.436;2023-10-09T11:18:04;102073.09;;;20.91;100.00
71970;BME280;59838;52.152;5.436;2023-10-09T11:20:34;102075.66;;;20.97;100.00
71970;BME280;59838;52.152;5.436;2023-10-09T11:23:03;102072.13;;;21.04;100.00
71970;BME280;59838;52.152;5.436;2023-10-09T11:25:39;102074.06;;;20.96;98.86
71970;BME280;59838;52.152;5.436;2023-10-09T11:28:27;102080.94;;;20.97;100.00
71970;BME280;59838;52.152;5.436;2023-10-09T11:31:09;102081.69;;;21.05;99.35
71970;BME280;59838;52.152;5.436;2023-10-09T11:33:49;102090.06;;;21.02;98.55
71970;BME280;59838;52.152;5.436;2023-10-09T11:36:18;102085.56;;;21.02;98.17
71970;BME280;59838;52.152;5.436;2023-10-09T11:39:02;102074.78;;;21.04;98.08
71970;BME280;59838;52.152;5.436;2023-10-09T11:41:49;102069.06;;;21.07;97.10
71970;BME280;59838;52.152;5.436;2023-10-09T11:44:43;102073.91;;;21.10;97.69
71970;BME280;59838;52.152;5.436;2023-10-09T11:47:21;102077.97;;;21.24;96.27
71970;BME280;59838;52.152;5.436;2023-10-09T11:49:52;102082.59;;;21.29;96.08
71970;BME280;59838;52.152;5.436;2023-10-09T11:52:32;102073.41;;;21.31;96.04
71970;BME280;59838;52.152;5.436;2023-10-09T11:55:05;102087.78;;;21.35;95.77
71970;BME280;59838;52.152;5.436;2023-10-09T11:57:42;102079.97;;;21.29;95.47
71970;BME280;59838;52.152;5.436;2023-10-09T12:00:09;102083.00;;;21.14;95.11
71970;BME280;59838;52.152;5.436;2023-10-09T12:02:55;102080.94;;;20.97;96.95
71970;BME280;59838;52.152;5.436;2023-10-09T12:05:22;102070.84;;;20.94;97.93
71970;BME280;59838;52.152;5.436;2023-10-09T12:07:49;102067.91;;;21.03;99.56
71970;BME280;59838;52.152;5.436;2023-10-09T12:10:21;102057.03;;;21.11;98.98
71970;BME280;59838;52.152;5.436;2023-10-09T12:12:55;102056.72;;;21.19;99.45
71970;BME280;59838;52.152;5.436;2023-10-09T12:15:24;102056.84;;;21.24;99.51
71970;BME280;59838;52.152;5.436;2023-10-09T12:17:51;102055.31;;;21.16;99.39
71970;BME280;59838;52.152;5.436;2023-10-09T12:20:20;102047.25;;;21.11;99.54
71970;BME280;59838;52.152;5.436;2023-10-09T12:22:59;102053.78;;;21.09;99.40
71970;BME280;59838;52.152;5.436;2023-10-09T12:25:26;102056.19;;;21.10;99.06
71970;BME280;59838;52.152;5.436;2023-10-09T12:27:59;102063.78;;;21.07;98.36
71970;BME280;59838;52.152;5.436;2023-10-09T12:30:28;102053.72;;;20.97;99.42
71970;BME280;59838;52.152;5.436;2023-10-09T12:32:56;102054.16;;;20.94;100.00
71970;BME280;59838;52.152;5.436;2023-10-09T12:35:25;102049.34;;;20.91;100.00
71970;BME280;59838;52.152;5.436;2023-10-09T12:37:52;102051.19;;;20.90;100.00
71970;BME280;59838;52.152;5.436;2023-10-09T12:40:24;102054.25;;;20.87;100.00
71970;BME280;59838;52.152;5.436;2023-10-09T12:42:51;102057.91;;;20.86;100.00
71970;BME280;59838;52.152;5.436;2023-10-09T12:45:19;102057.78;;;20.81;100.00
71970;BME280;59838;52.152;5.436;2023-10-09T12:47:56;102058.81;;;20.80;100.00
71970;BME280;59838;52.152;5.436;2023-10-09T12:50:26;102067.63;;;20.74;100.00
71970;BME280;59838;52.152;5.436;2023-10-09T12:52:58;102064.22;;;20.67;100.00
71970;BME280;59838;52.152;5.436;2023-10-09T12:55:29;102066.88;;;20.67;100.00
71970;BME280;59838;52.152;5.436;2023-10-09T12:58:01;102064.88;;;20.62;100.00
71970;BME280;59838;52.152;5.436;2023-10-09T13:00:37;102067.53;;;20.62;100.00
71970;BME280;59838;52.152;5.436;2023-10-09T13:03:11;102069.19;;;20.56;100.00
71970;BME280;59838;52.152;5.436;2023-10-09T13:05:52;102075.56;;;20.49;100.00
71970;BME280;59838;52.152;5.436;2023-10-09T13:08:26;102077.47;;;20.41;100.00
71970;BME280;59838;52.152;5.436;2023-10-09T13:11:04;102074.69;;;20.36;100.00
71970;BME280;59838;52.152;5.436;2023-10-09T13:13:39;102073.50;;;20.32;100.00
71970;BME280;59838;52.152;5.436;2023-10-09T13:16:07;102071.06;;;20.31;100.00
71970;BME280;59838;52.152;5.436;2023-10-09T13:18:34;102067.63;;;20.30;100.00
71970;BME280;59838;52.152;5.436;2023-10-09T13:21:01;102071.28;;;20.29;100.00
71970;BME280;59838;52.152;5.436;2023-10-09T13:23:31;102069.69;;;20.28;100.00
71970;BME280;59838;52.152;5.436;2023-10-09T13:26:14;102067.25;;;20.26;100.00
71970;BME280;59838;52.152;5.436;2023-10-09T13:28:59;102081.31;;;20.20;100.00